METAR Torp

ENTO 272120Z AUTO 32008KT 270V350 9999 NCD 11/01 Q1030

METAR Gardermoen

ENGM 272120Z 33007KT 290V360 CAVOK 11/M01 Q1029

Webcam Kjeller